createdAt,value
2024-03-03T00:00:35.502Z,4.45
2024-03-03T00:03:10.917Z,3.40
2024-03-03T00:05:44.579Z,3.63
2024-03-03T00:08:17.350Z,3.33
2024-03-03T00:10:51.419Z,2.85
2024-03-03T00:13:26.051Z,5.18
2024-03-03T00:15:59.126Z,3.58
2024-03-03T00:18:31.968Z,3.33
2024-03-03T00:21:06.311Z,3.00
2024-03-03T00:23:38.989Z,3.40
2024-03-03T00:26:11.899Z,3.03
2024-03-03T00:28:44.886Z,3.60
2024-03-03T00:31:20.001Z,2.97
2024-03-03T00:33:52.878Z,4.95
2024-03-03T00:36:25.694Z,3.50
2024-03-03T00:38:58.359Z,2.80
2024-03-03T00:41:31.196Z,5.13
2024-03-03T00:44:04.463Z,3.13
2024-03-03T00:46:37.253Z,3.40
2024-03-03T00:49:09.963Z,5.55
2024-03-03T00:51:42.676Z,2.75
2024-03-03T00:54:15.313Z,3.45
2024-03-03T00:56:47.967Z,4.28
2024-03-03T00:59:20.917Z,3.42
2024-03-03T01:01:53.615Z,4.93
2024-03-03T01:04:26.252Z,3.35
2024-03-03T01:06:58.969Z,3.63
2024-03-03T01:09:31.677Z,3.70
2024-03-03T01:12:04.825Z,3.30
2024-03-03T01:14:37.489Z,3.75
2024-03-03T01:17:13.003Z,6.85
2024-03-03T01:19:46.791Z,3.13
2024-03-03T01:22:28.880Z,4.35
2024-03-03T01:25:01.643Z,4.05
2024-03-03T01:27:34.693Z,4.00
2024-03-03T01:30:08.752Z,5.00
2024-03-03T01:32:41.410Z,5.82
2024-03-03T01:35:14.136Z,4.90
2024-03-03T01:37:46.771Z,3.88
2024-03-03T01:40:19.550Z,4.15
2024-03-03T01:42:59.324Z,4.50
2024-03-03T01:45:32.064Z,3.25
2024-03-03T01:48:05.294Z,4.03
2024-03-03T01:50:39.993Z,5.05
2024-03-03T01:53:14.136Z,5.00
2024-03-03T01:55:48.093Z,4.47
2024-03-03T01:58:24.536Z,4.97
2024-03-03T02:01:07.164Z,4.15
2024-03-03T02:03:40.715Z,3.78
2024-03-03T02:06:18.736Z,3.22
2024-03-03T02:08:51.842Z,4.30
2024-03-03T02:11:24.597Z,3.70
2024-03-03T02:13:57.513Z,4.28
2024-03-03T02:16:30.210Z,4.32
2024-03-03T02:19:03.200Z,4.20
2024-03-03T02:21:36.017Z,3.75
2024-03-03T02:24:08.681Z,3.72
2024-03-03T02:26:41.350Z,4.72
2024-03-03T02:29:15.755Z,4.35
2024-03-03T02:31:50.255Z,4.93
2024-03-03T02:37:02.470Z,3.90
2024-03-03T02:39:35.239Z,4.35
2024-03-03T02:42:08.046Z,3.65
2024-03-03T02:44:40.654Z,3.80
2024-03-03T02:47:13.513Z,4.30
2024-03-03T02:49:46.189Z,4.05
2024-03-03T02:52:19.159Z,4.78
2024-03-03T02:54:51.913Z,3.70
2024-03-03T02:57:24.587Z,6.25
2024-03-03T02:59:57.303Z,3.88
2024-03-03T03:02:31.119Z,4.72
2024-03-03T03:05:04.493Z,5.32
2024-03-03T03:07:37.197Z,3.60
2024-03-03T03:10:18.076Z,4.68
2024-03-03T03:12:50.935Z,3.85
2024-03-03T03:15:23.941Z,4.32
2024-03-03T03:17:56.647Z,6.13
2024-03-03T03:20:29.360Z,5.90
2024-03-03T03:23:01.990Z,7.07
2024-03-03T03:25:35.179Z,3.67
2024-03-03T03:28:14.118Z,5.80
2024-03-03T03:30:46.811Z,5.90
2024-03-03T03:33:19.538Z,4.13
2024-03-03T03:35:52.276Z,7.07
2024-03-03T03:38:24.921Z,4.63
2024-03-03T03:40:57.573Z,5.20
2024-03-03T03:43:30.712Z,4.97
2024-03-03T03:46:03.459Z,6.45
2024-03-03T03:48:36.151Z,5.32
2024-03-03T03:51:09.100Z,5.88
2024-03-03T03:53:41.751Z,5.18
2024-03-03T03:56:21.669Z,5.50
2024-03-03T03:58:54.504Z,6.05
2024-03-03T04:01:29.747Z,5.38
2024-03-03T04:04:02.830Z,6.47
2024-03-03T04:06:35.570Z,6.20
2024-03-03T04:09:08.311Z,6.18
2024-03-03T04:12:00.651Z,5.28
2024-03-03T04:14:33.446Z,5.80
2024-03-03T04:17:10.335Z,6.38
2024-03-03T04:19:43.002Z,7.20
2024-03-03T04:22:15.781Z,6.35
2024-03-03T04:24:48.598Z,5.65
2024-03-03T04:27:22.450Z,5.25
2024-03-03T04:29:55.085Z,8.23
2024-03-03T04:32:34.029Z,6.10
2024-03-03T04:35:07.133Z,8.25
2024-03-03T04:37:39.794Z,6.75
2024-03-03T04:40:12.524Z,6.95
2024-03-03T04:42:47.263Z,8.25
2024-03-03T04:45:20.234Z,8.45
2024-03-03T04:47:52.968Z,8.27
2024-03-03T04:50:25.608Z,8.63
2024-03-03T04:52:58.386Z,9.52
2024-03-03T04:55:31.389Z,6.43
2024-03-03T04:58:06.169Z,7.03
2024-03-03T05:00:38.837Z,9.10
2024-03-03T05:03:12.380Z,8.73
2024-03-03T05:05:45.069Z,9.63
2024-03-03T05:08:19.949Z,8.90
2024-03-03T05:10:52.841Z,9.27
2024-03-03T05:13:26.683Z,8.68
2024-03-03T05:15:59.922Z,8.38
2024-03-03T05:18:33.619Z,8.68
2024-03-03T05:21:06.266Z,9.70
2024-03-03T05:23:54.440Z,10.40
2024-03-03T05:26:27.651Z,9.85
2024-03-03T05:29:00.356Z,9.40
2024-03-03T05:31:42.176Z,8.50
2024-03-03T05:34:16.420Z,11.10
2024-03-03T05:36:49.546Z,9.52
2024-03-03T05:39:22.909Z,9.80
2024-03-03T05:41:59.405Z,8.95
2024-03-03T05:44:35.408Z,10.10
2024-03-03T05:47:10.520Z,8.05
2024-03-03T05:49:44.267Z,10.18
2024-03-03T05:52:17.047Z,11.30
2024-03-03T05:54:49.802Z,11.68
2024-03-03T05:57:22.593Z,9.95
2024-03-03T05:59:55.338Z,10.38
2024-03-03T06:02:28.057Z,11.48
2024-03-03T06:05:00.743Z,10.10
2024-03-03T06:07:33.511Z,11.57
2024-03-03T06:10:06.748Z,9.48
2024-03-03T06:12:39.499Z,11.57
2024-03-03T06:15:12.330Z,10.30
2024-03-03T06:17:45.067Z,10.30
2024-03-03T06:20:27.435Z,13.00
2024-03-03T06:23:00.050Z,10.30
2024-03-03T06:25:33.148Z,10.15
2024-03-03T06:28:16.185Z,10.73
2024-03-03T06:30:48.959Z,12.27
2024-03-03T06:33:22.097Z,10.32
2024-03-03T06:35:54.907Z,12.02
2024-03-03T06:38:27.852Z,11.93
2024-03-03T06:41:00.551Z,10.68
2024-03-03T06:43:33.282Z,10.88
2024-03-03T06:46:06.023Z,14.35
2024-03-03T06:48:39.793Z,12.13
2024-03-03T06:51:14.038Z,13.68
2024-03-03T06:53:46.747Z,11.27
2024-03-03T06:56:19.707Z,11.40
2024-03-03T06:58:52.357Z,11.82
2024-03-03T07:01:25.111Z,13.02
2024-03-03T07:04:16.498Z,10.88
2024-03-03T07:06:49.192Z,10.60
2024-03-03T07:09:25.130Z,12.77
2024-03-03T07:11:59.137Z,11.23
2024-03-03T07:14:33.647Z,11.70
2024-03-03T07:19:38.909Z,11.35
2024-03-03T07:22:11.789Z,11.55
2024-03-03T07:24:44.471Z,10.38
2024-03-03T07:27:17.152Z,9.65
2024-03-03T07:29:49.808Z,11.30
2024-03-03T07:32:23.134Z,12.38
2024-03-03T07:34:59.370Z,13.32
2024-03-03T07:37:33.022Z,12.43
2024-03-03T07:42:45.598Z,11.55
2024-03-03T07:45:18.447Z,12.38
2024-03-03T07:47:51.163Z,11.25
2024-03-03T07:50:23.891Z,11.05
2024-03-03T07:52:56.650Z,14.30
2024-03-03T07:55:30.721Z,10.82
2024-03-03T07:58:04.158Z,12.15
2024-03-03T08:00:37.929Z,13.27
2024-03-03T08:03:11.103Z,15.70
2024-03-03T08:05:43.836Z,12.75
2024-03-03T08:08:16.638Z,9.52
2024-03-03T08:10:49.587Z,13.70
2024-03-03T08:13:22.313Z,11.32
2024-03-03T08:15:55.640Z,10.88
2024-03-03T08:18:28.559Z,12.32
2024-03-03T08:21:03.234Z,8.95
2024-03-03T08:23:35.922Z,9.40
2024-03-03T08:26:12.659Z,9.18
2024-03-03T08:28:45.427Z,8.75
2024-03-03T08:31:19.777Z,8.13
2024-03-03T08:33:52.502Z,8.13
2024-03-03T08:36:25.339Z,7.63
2024-03-03T08:38:58.353Z,8.40
2024-03-03T08:41:38.777Z,7.53
2024-03-03T08:44:11.521Z,7.47
2024-03-03T08:46:44.256Z,8.07
2024-03-03T08:49:27.272Z,9.82
2024-03-03T08:52:00.281Z,10.80
2024-03-03T08:54:33.636Z,8.85
2024-03-03T08:57:10.396Z,6.18
2024-03-03T08:59:56.588Z,6.95
2024-03-03T09:02:29.492Z,7.68
2024-03-03T09:05:02.891Z,8.32
2024-03-03T09:07:37.396Z,7.75
2024-03-03T09:12:52.003Z,6.82
2024-03-03T09:15:24.779Z,6.22
2024-03-03T09:17:57.992Z,8.60
2024-03-03T09:20:30.691Z,7.85
2024-03-03T09:23:03.811Z,9.40
2024-03-03T09:25:36.579Z,8.95
2024-03-03T09:28:21.762Z,12.75
2024-03-03T09:30:55.954Z,12.88
2024-03-03T09:33:28.795Z,8.77
2024-03-03T09:36:01.762Z,9.25
2024-03-03T09:38:37.670Z,11.15
2024-03-03T09:41:10.750Z,9.77
2024-03-03T09:43:49.773Z,12.38
2024-03-03T09:46:28.380Z,10.18
2024-03-03T09:49:04.080Z,9.70
2024-03-03T09:51:42.239Z,10.25
2024-03-03T09:54:19.781Z,10.73
2024-03-03T09:56:54.498Z,10.88
2024-03-03T09:59:27.276Z,10.07
2024-03-03T10:02:00.464Z,8.00
2024-03-03T10:04:36.107Z,10.52
2024-03-03T10:07:12.831Z,9.18
2024-03-03T10:09:57.489Z,9.02
2024-03-03T10:15:09.550Z,10.07
2024-03-03T10:17:42.450Z,11.52
2024-03-03T10:20:15.383Z,10.40
2024-03-03T10:22:48.562Z,11.70
2024-03-03T10:25:23.304Z,9.95
2024-03-03T10:28:14.535Z,11.27
2024-03-03T10:30:47.574Z,11.05
2024-03-03T10:33:27.173Z,11.15
2024-03-03T10:36:12.143Z,10.50
2024-03-03T10:38:57.226Z,11.55
2024-03-03T10:41:30.115Z,11.68
2024-03-03T10:44:03.341Z,11.18
2024-03-03T10:46:39.075Z,11.05
2024-03-03T10:49:15.050Z,9.88
2024-03-03T10:51:48.874Z,8.77
2024-03-03T10:54:24.170Z,9.00
2024-03-03T10:56:57.655Z,10.20
2024-03-03T10:59:46.925Z,7.78
2024-03-03T11:02:22.779Z,8.23
2024-03-03T11:05:05.430Z,9.10
2024-03-03T11:07:39.194Z,8.48
2024-03-03T11:10:13.531Z,9.52
2024-03-03T11:12:51.917Z,5.93
2024-03-03T11:15:27.590Z,7.18
2024-03-03T11:18:18.946Z,9.88
2024-03-03T11:20:57.554Z,4.57
2024-03-03T11:23:59.432Z,5.25
2024-03-03T11:26:44.079Z,3.03
2024-03-03T11:29:21.004Z,3.80
2024-03-03T11:31:54.253Z,4.07
2024-03-03T11:34:27.565Z,3.40
2024-03-03T11:37:02.108Z,4.15
2024-03-03T11:39:34.899Z,2.88
2024-03-03T11:42:34.119Z,3.70
2024-03-03T11:45:08.491Z,2.80
2024-03-03T11:47:57.252Z,3.67
2024-03-03T11:50:31.367Z,3.25
2024-03-03T11:55:40.313Z,2.78
2024-03-03T11:58:17.610Z,3.85
2024-03-03T12:01:11.294Z,3.58
2024-03-03T12:03:45.447Z,3.33
2024-03-03T12:09:05.969Z,4.80
2024-03-03T12:11:42.973Z,3.53
2024-03-03T12:14:15.923Z,3.47
2024-03-03T12:16:59.032Z,3.33
2024-03-03T12:19:36.095Z,3.10
2024-03-03T12:22:09.368Z,2.90
2024-03-03T12:24:42.078Z,3.93
2024-03-03T12:27:14.854Z,3.38
2024-03-03T12:30:02.211Z,3.25
2024-03-03T12:32:34.941Z,4.13
2024-03-03T12:35:09.885Z,3.17
2024-03-03T12:37:42.969Z,3.13
2024-03-03T12:40:19.114Z,2.88
2024-03-03T12:42:52.907Z,2.90
2024-03-03T12:45:26.203Z,3.08
2024-03-03T12:47:58.991Z,3.00
2024-03-03T12:50:31.751Z,3.90
2024-03-03T12:53:07.616Z,1.95
2024-03-03T12:55:43.500Z,3.33
2024-03-03T12:58:16.664Z,3.22
2024-03-03T13:00:51.274Z,2.77
2024-03-03T13:03:23.987Z,2.38
2024-03-03T13:05:56.668Z,3.03
2024-03-03T13:08:30.579Z,2.90
2024-03-03T13:11:03.360Z,2.35
2024-03-03T13:13:36.170Z,2.85
2024-03-03T13:16:13.548Z,3.47
2024-03-03T13:19:02.772Z,2.28
2024-03-03T13:21:37.599Z,2.97
2024-03-03T13:24:14.482Z,2.28
2024-03-03T13:26:47.320Z,2.80
2024-03-03T13:29:20.108Z,2.25
2024-03-03T13:31:53.938Z,2.92
2024-03-03T13:34:26.693Z,2.08
2024-03-03T13:36:59.367Z,3.40
2024-03-03T13:39:32.092Z,2.53
2024-03-03T13:42:13.079Z,2.05
2024-03-03T13:44:46.603Z,2.20
2024-03-03T13:47:19.438Z,2.45
2024-03-03T13:49:52.219Z,2.20
2024-03-03T13:52:25.327Z,2.90
2024-03-03T13:54:58.001Z,2.00
2024-03-03T13:57:35.797Z,2.85
2024-03-03T14:00:15.740Z,2.78
2024-03-03T14:02:48.627Z,3.58
2024-03-03T14:05:21.412Z,3.03
2024-03-03T14:07:54.446Z,2.58
2024-03-03T14:10:27.842Z,4.35
2024-03-03T14:13:12.980Z,2.45
2024-03-03T14:15:48.484Z,2.83
2024-03-03T14:18:21.271Z,4.10
2024-03-03T14:20:54.125Z,3.15
2024-03-03T14:23:32.023Z,2.30
2024-03-03T14:26:04.968Z,2.55
2024-03-03T14:28:37.908Z,4.90
2024-03-03T14:31:10.594Z,3.03
2024-03-03T14:33:43.341Z,3.63
2024-03-03T14:36:17.202Z,3.47
2024-03-03T14:38:50.388Z,3.47
2024-03-03T14:41:23.193Z,2.78
2024-03-03T14:43:57.982Z,3.00
2024-03-03T14:46:32.430Z,3.47
2024-03-03T14:49:06.540Z,3.58
2024-03-03T14:51:39.374Z,3.55
2024-03-03T14:54:14.123Z,3.08
2024-03-03T14:56:58.686Z,5.03
2024-03-03T14:59:31.889Z,3.17
2024-03-03T15:02:08.346Z,4.07
2024-03-03T15:04:51.625Z,3.03
2024-03-03T15:07:25.269Z,3.53
2024-03-03T15:13:10.403Z,2.63
2024-03-03T15:15:43.302Z,2.90
2024-03-03T15:18:19.574Z,3.90
2024-03-03T15:20:52.318Z,3.40
2024-03-03T15:23:25.648Z,3.53
2024-03-03T15:25:59.766Z,3.17
2024-03-03T15:28:32.654Z,4.43
2024-03-03T15:31:27.155Z,3.55
2024-03-03T15:34:00.915Z,3.53
2024-03-03T15:36:43.490Z,2.70
2024-03-03T15:39:17.332Z,4.05
2024-03-03T15:41:52.187Z,3.67
2024-03-03T15:45:10.985Z,3.05
2024-03-03T15:47:46.967Z,2.95
2024-03-03T15:50:21.931Z,3.15
2024-03-03T15:52:54.638Z,3.35
2024-03-03T15:55:27.674Z,4.13
2024-03-03T15:58:04.005Z,2.72
2024-03-03T16:00:39.017Z,3.00
2024-03-03T16:03:11.770Z,4.03
2024-03-03T16:05:48.811Z,2.70
2024-03-03T16:08:21.689Z,5.47
2024-03-03T16:10:54.936Z,3.80
2024-03-03T16:13:29.446Z,4.40
2024-03-03T16:18:35.383Z,2.85
2024-03-03T16:21:11.398Z,2.55
2024-03-03T16:23:44.699Z,2.75
2024-03-03T16:26:18.764Z,3.17
2024-03-03T16:28:51.769Z,2.13
2024-03-03T16:31:24.445Z,4.57
2024-03-03T16:33:57.165Z,4.57
2024-03-03T16:36:30.468Z,2.97
2024-03-03T16:39:06.130Z,3.75
2024-03-03T16:41:52.053Z,3.88
2024-03-03T16:44:24.688Z,2.90
2024-03-03T16:46:57.491Z,3.85
2024-03-03T16:49:30.673Z,35.38
2024-03-03T16:52:03.791Z,5.57
2024-03-03T16:54:40.600Z,55.55
2024-03-03T16:57:13.304Z,3.50
2024-03-03T16:59:46.039Z,2.70
2024-03-03T17:02:23.113Z,4.55
2024-03-03T17:04:55.789Z,6.28
2024-03-03T17:07:29.240Z,8.20
2024-03-03T17:10:05.549Z,16.05
2024-03-03T17:12:39.283Z,6.07
2024-03-03T17:15:12.921Z,4.53
2024-03-03T17:17:45.818Z,7.75
2024-03-03T17:20:18.742Z,3.45
2024-03-03T17:22:51.535Z,8.65
2024-03-03T17:25:36.912Z,3.28
2024-03-03T17:28:13.467Z,8.32
2024-03-03T17:30:51.212Z,16.63
2024-03-03T17:33:26.423Z,5.90
2024-03-03T17:35:59.623Z,5.82
2024-03-03T17:38:34.500Z,12.05
2024-03-03T17:41:07.717Z,7.32
2024-03-03T17:43:40.478Z,3.42
2024-03-03T17:46:13.464Z,4.38
2024-03-03T17:48:46.332Z,4.90
2024-03-03T17:51:18.939Z,5.63
2024-03-03T17:53:52.598Z,5.60
2024-03-03T17:56:25.243Z,4.67
2024-03-03T17:58:57.984Z,6.97
2024-03-03T18:01:31.139Z,6.80
2024-03-03T18:04:05.284Z,7.88
2024-03-03T18:06:38.256Z,8.30
2024-03-03T18:09:12.731Z,7.60
2024-03-03T18:14:18.088Z,14.25
2024-03-03T18:16:50.793Z,14.68
2024-03-03T18:19:23.538Z,18.52
2024-03-03T18:21:56.251Z,16.70
2024-03-03T18:24:32.761Z,17.42
2024-03-03T18:27:05.626Z,18.67
2024-03-03T18:29:38.756Z,20.15
2024-03-03T18:32:11.557Z,20.15
2024-03-03T18:34:44.267Z,22.48
2024-03-03T18:37:19.099Z,22.83
2024-03-03T18:39:55.362Z,24.10
2024-03-03T18:42:35.181Z,23.10
2024-03-03T18:45:08.396Z,24.02
2024-03-03T18:47:41.668Z,22.80
2024-03-03T18:50:20.960Z,23.33
2024-03-03T18:52:53.971Z,25.25
2024-03-03T18:55:27.539Z,27.10
2024-03-03T18:58:00.488Z,27.20
2024-03-03T19:00:33.285Z,27.77
2024-03-03T19:03:06.036Z,25.38
2024-03-03T19:05:39.372Z,26.20
2024-03-03T19:08:12.029Z,24.52
2024-03-03T19:10:46.361Z,23.45
2024-03-03T19:13:19.822Z,25.00
2024-03-03T19:15:54.241Z,26.67
2024-03-03T19:18:26.965Z,27.75
2024-03-03T19:21:02.362Z,23.48
2024-03-03T19:23:35.165Z,27.67
2024-03-03T19:26:35.139Z,23.60
2024-03-03T19:29:07.884Z,23.48
2024-03-03T19:31:40.601Z,22.75
2024-03-03T19:34:19.251Z,27.88
2024-03-03T19:36:52.049Z,24.10
2024-03-03T19:39:33.614Z,24.75
2024-03-03T19:42:07.201Z,26.98
2024-03-03T19:44:41.110Z,28.02
2024-03-03T19:47:13.840Z,28.20
2024-03-03T19:49:46.471Z,25.63
2024-03-03T19:52:19.457Z,28.80
2024-03-03T19:54:52.848Z,29.75
2024-03-03T19:57:28.178Z,26.90
2024-03-03T20:00:09.474Z,25.60
2024-03-03T20:02:50.929Z,29.67
2024-03-03T20:05:23.545Z,29.42
2024-03-03T20:07:56.262Z,28.35
2024-03-03T20:10:29.614Z,29.40
2024-03-03T20:13:05.131Z,32.40
2024-03-03T20:15:38.222Z,34.92
2024-03-03T20:18:11.045Z,33.25
2024-03-03T20:20:43.975Z,33.47
2024-03-03T20:23:16.731Z,32.15
2024-03-03T20:25:49.508Z,33.67
2024-03-03T20:28:22.248Z,36.83
2024-03-03T20:30:55.108Z,32.85
2024-03-03T20:33:31.362Z,36.53
2024-03-03T20:36:04.637Z,40.67
2024-03-03T20:38:45.444Z,36.15
2024-03-03T20:41:18.073Z,34.33
2024-03-03T20:43:52.573Z,34.78
2024-03-03T20:46:43.887Z,38.50
2024-03-03T20:49:18.992Z,38.95
2024-03-03T20:51:52.343Z,39.45
2024-03-03T20:54:25.078Z,38.60
2024-03-03T20:56:58.742Z,40.78
2024-03-03T20:59:32.509Z,44.53
2024-03-03T21:02:08.362Z,44.47
2024-03-03T21:04:43.899Z,40.78
2024-03-03T21:07:17.280Z,39.60
2024-03-03T21:09:50.179Z,41.35
2024-03-03T21:12:23.024Z,38.47
2024-03-03T21:14:55.745Z,40.35
2024-03-03T21:17:28.424Z,42.78
2024-03-03T21:20:01.081Z,39.60
2024-03-03T21:22:33.999Z,39.92
2024-03-03T21:25:08.611Z,42.70
2024-03-03T21:30:16.269Z,37.00
2024-03-03T21:32:49.036Z,39.95
2024-03-03T21:35:22.032Z,35.85
2024-03-03T21:37:54.672Z,32.17
2024-03-03T21:40:31.617Z,28.92
2024-03-03T21:43:12.045Z,27.13
2024-03-03T21:45:45.302Z,33.60
2024-03-03T21:48:18.107Z,27.48
2024-03-03T21:50:53.639Z,27.23
2024-03-03T21:54:45.553Z,26.88
2024-03-03T21:57:37.330Z,25.33
2024-03-03T22:00:26.965Z,26.48
2024-03-03T22:07:26.848Z,25.85
